Time;durP1;ratioP1;P1;durP2;ratioP2;P2;SDS_P1;SDS_P2;PMS_P1;PMS_P2;Temp;Humidity;BMP_temperature;BMP_pressure;BME280_temperature;BME280_humidity;BME280_pressure;Samples;Min_cycle;Max_cycle;Signal;HPM_P1;HPM_P2
2021/05/25 00:02:20;;;;;;;1.58;1.48;;;10.40;94.90;;;;;;5056467;28;20083;-66
2021/05/25 00:04:46;;;;;;;2.65;1.85;;;10.40;94.50;;;;;;5069330;28;20036;-66
2021/05/25 00:07:12;;;;;;;2.22;2.00;;;10.40;94.60;;;;;;5067600;28;20036;-66
2021/05/25 00:09:37;;;;;;;1.80;1.52;;;10.30;94.70;;;;;;5068354;28;20049;-66
2021/05/25 00:12:03;;;;;;;2.53;1.67;;;10.30;94.10;;;;;;5055752;28;20537;-66
2021/05/25 00:14:29;;;;;;;1.52;1.42;;;10.30;95.10;;;;;;5062430;28;20041;-65
2021/05/25 00:16:56;;;;;;;2.83;1.80;;;10.30;94.80;;;;;;5057636;28;20528;-66
2021/05/25 00:19:22;;;;;;;1.60;1.50;;;10.20;95.20;;;;;;5051260;28;20048;-66
2021/05/25 00:21:48;;;;;;;2.70;1.60;;;10.10;95.20;;;;;;5064681;28;20093;-65
2021/05/25 00:24:15;;;;;;;2.05;1.85;;;10.10;95.70;;;;;;5069073;28;20067;-65
2021/05/25 00:26:41;;;;;;;2.10;2.00;;;10.10;95.20;;;;;;5060101;28;20037;-65
2021/05/25 00:29:07;;;;;;;2.17;1.92;;;10.00;95.80;;;;;;5062419;28;20106;-65
2021/05/25 00:31:33;;;;;;;2.95;2.30;;;10.00;95.40;;;;;;5058665;28;20037;-66
2021/05/25 00:33:59;;;;;;;2.90;2.60;;;10.00;95.90;;;;;;5049799;28;20044;-65
2021/05/25 00:36:28;;;;;;;3.35;2.53;;;10.00;95.60;;;;;;5060818;28;20033;-66
2021/05/25 00:38:54;;;;;;;3.22;2.40;;;10.00;96.30;;;;;;5058457;28;20091;-65
2021/05/25 00:41:20;;;;;;;2.95;2.75;;;10.00;95.40;;;;;;5067045;28;20032;-65
2021/05/25 00:43:46;;;;;;;2.80;2.60;;;10.00;95.40;;;;;;5071845;28;20059;-65
2021/05/25 00:46:12;;;;;;;2.88;2.67;;;10.00;95.70;;;;;;5066648;28;20075;-65
2021/05/25 00:48:37;;;;;;;3.00;2.80;;;10.00;95.80;;;;;;5053321;28;20123;-65
2021/05/25 00:51:04;;;;;;;3.28;2.97;;;10.00;95.30;;;;;;5057971;28;20051;-65
2021/05/25 00:53:30;;;;;;;3.35;3.05;;;10.00;96.20;;;;;;5065390;28;20032;-66
2021/05/25 00:55:56;;;;;;;3.03;2.83;;;10.00;95.70;;;;;;5071930;28;20482;-65
2021/05/25 00:58:22;;;;;;;2.92;2.33;;;10.00;96.10;;;;;;5062533;28;20436;-65
2021/05/25 01:00:48;;;;;;;2.50;2.30;;;10.00;95.90;;;;;;5067492;28;20419;-65
2021/05/25 01:03:20;;;;;;;2.50;2.30;;;10.00;95.50;;;;;;5068316;28;20398;-65
2021/05/25 01:05:46;;;;;;;2.45;2.25;;;9.90;95.10;;;;;;5072339;28;20107;-66
2021/05/25 01:08:13;;;;;;;2.55;2.20;;;9.90;95.50;;;;;;5070540;28;20172;-65
2021/05/25 01:10:44;;;;;;;2.78;2.58;;;9.90;95.10;;;;;;5065326;28;20037;-65
2021/05/25 01:13:18;;;;;;;3.90;2.67;;;9.90;95.90;;;;;;5067731;28;20067;-66
2021/05/25 01:15:45;;;;;;;3.08;2.83;;;9.90;95.70;;;;;;5060191;28;20381;-65
2021/05/25 01:18:11;;;;;;;3.05;2.80;;;9.90;96.40;;;;;;5072053;28;20041;-65
2021/05/25 01:20:38;;;;;;;3.50;3.17;;;9.80;95.40;;;;;;5061581;28;20132;-65
2021/05/25 01:23:07;;;;;;;3.22;2.92;;;9.90;95.80;;;;;;5061992;28;20482;-66
2021/05/25 01:25:32;;;;;;;3.75;3.17;;;9.80;95.10;;;;;;5052935;28;20107;-66
2021/05/25 01:28:01;;;;;;;3.95;3.20;;;9.80;96.30;;;;;;5058495;28;20458;-65
2021/05/25 01:30:31;;;;;;;3.58;3.33;;;9.80;96.20;;;;;;5053198;28;20052;-65
2021/05/25 01:32:59;;;;;;;3.97;3.28;;;9.80;95.80;;;;;;5070965;28;20048;-65
2021/05/25 01:35:26;;;;;;;3.30;3.00;;;9.70;96.50;;;;;;5071137;28;20033;-66
2021/05/25 01:37:54;;;;;;;3.70;3.40;;;9.70;96.20;;;;;;5064573;28;20538;-66
2021/05/25 01:40:21;;;;;;;4.10;3.70;;;9.70;96.00;;;;;;5070892;28;20486;-65
2021/05/25 01:42:47;;;;;;;4.38;3.90;;;9.70;96.50;;;;;;5071369;28;20128;-66
2021/05/25 01:45:16;;;;;;;4.72;4.32;;;9.70;96.20;;;;;;5072310;28;20555;-65
2021/05/25 01:47:42;;;;;;;4.38;3.97;;;9.70;96.30;;;;;;5065421;28;20079;-66
2021/05/25 01:50:11;;;;;;;5.80;4.20;;;9.70;95.90;;;;;;5070799;28;20068;-65
2021/05/25 01:52:56;;;;;;;4.72;4.18;;;9.70;95.80;;;;;;5069276;28;20077;-65
2021/05/25 01:55:35;;;;;;;5.13;4.65;;;9.70;96.20;;;;;;5062867;28;20573;-65
2021/05/25 01:58:08;;;;;;;4.85;4.35;;;9.60;97.00;;;;;;5060836;28;20343;-65
2021/05/25 02:00:36;;;;;;;5.20;4.80;;;9.60;96.70;;;;;;5069277;28;20157;-64
2021/05/25 02:03:03;;;;;;;7.57;5.18;;;9.60;96.70;;;;;;5064085;28;20348;-65
2021/05/25 02:05:28;;;;;;;6.03;5.13;;;9.60;96.50;;;;;;5068888;28;20044;-65
2021/05/25 02:07:55;;;;;;;5.07;4.68;;;9.60;96.70;;;;;;5058541;28;20418;-65
2021/05/25 02:10:28;;;;;;;5.15;4.75;;;9.60;96.30;;;;;;5066078;28;20043;-65
2021/05/25 02:13:06;;;;;;;5.68;5.22;;;9.60;96.30;;;;;;5066793;28;20039;-65
2021/05/25 02:15:32;;;;;;;5.90;5.40;;;9.60;96.80;;;;;;5070725;28;20507;-64
2021/05/25 02:18:26;;;;;;;6.15;5.55;;;9.60;96.50;;;;;;5061798;28;20475;-65
2021/05/25 02:20:55;;;;;;;8.95;6.15;;;9.60;96.70;;;;;;5063217;28;20102;-65
2021/05/25 02:23:21;;;;;;;6.85;6.22;;;9.60;96.90;;;;;;5055140;28;20089;-65
2021/05/25 02:25:47;;;;;;;7.30;6.70;;;9.60;97.00;;;;;;5070289;28;20052;-65
2021/05/25 02:28:13;;;;;;;9.95;7.43;;;9.60;97.00;;;;;;5070337;28;20044;-64
2021/05/25 02:30:40;;;;;;;7.28;6.40;;;9.60;97.00;;;;;;5071005;28;20122;-65
2021/05/25 02:33:10;;;;;;;8.35;7.65;;;9.70;96.40;;;;;;5067814;28;20040;-64
2021/05/25 02:35:37;;;;;;;9.38;8.40;;;9.70;96.80;;;;;;5070807;28;20037;-64
2021/05/25 02:38:04;;;;;;;8.95;8.05;;;9.70;96.40;;;;;;5065946;28;20039;-65
2021/05/25 02:40:31;;;;;;;10.52;9.43;;;9.70;96.30;;;;;;5061130;28;20049;-65
2021/05/25 02:42:57;;;;;;;10.48;9.52;;;9.70;96.70;;;;;;5065110;28;20524;-64
2021/05/25 02:45:23;;;;;;;10.98;9.88;;;9.70;96.00;;;;;;5070576;28;20486;-65
2021/05/25 02:47:48;;;;;;;11.25;10.10;;;9.70;96.30;;;;;;5062690;28;20086;-64
2021/05/25 02:50:14;;;;;;;11.60;10.50;;;9.70;96.10;;;;;;5070579;28;20044;-65
2021/05/25 02:52:42;;;;;;;12.73;11.43;;;9.70;96.50;;;;;;5063125;28;20490;-65
2021/05/25 02:55:13;;;;;;;10.43;9.43;;;9.70;96.60;;;;;;5064756;28;20048;-65
2021/05/25 02:57:39;;;;;;;11.95;10.75;;;9.80;95.50;;;;;;5065945;28;20069;-65
2021/05/25 03:00:07;;;;;;;11.88;10.77;;;9.80;96.80;;;;;;5063653;28;20082;-65
2021/05/25 03:02:33;;;;;;;13.95;11.55;;;9.80;96.00;;;;;;5051847;28;20033;-65
2021/05/25 03:04:59;;;;;;;6.90;6.30;;;9.80;94.90;;;;;;5052725;28;20071;-64
2021/05/25 03:07:25;;;;;;;3.08;2.70;;;9.90;94.00;;;;;;5054233;28;20111;-64
2021/05/25 03:09:50;;;;;;;2.83;2.20;;;9.90;93.50;;;;;;5060323;28;20048;-65
2021/05/25 03:12:16;;;;;;;2.60;1.98;;;9.90;93.20;;;;;;5069573;28;20097;-65
2021/05/25 03:14:42;;;;;;;2.75;1.83;;;9.80;93.40;;;;;;5058920;28;20111;-65
2021/05/25 03:17:08;;;;;;;4.18;1.95;;;9.70;93.50;;;;;;5070451;28;20040;-65
2021/05/25 03:19:33;;;;;;;2.97;1.85;;;9.60;93.70;;;;;;5051574;28;20045;-64
2021/05/25 03:21:59;;;;;;;3.50;1.80;;;9.50;93.80;;;;;;5050628;28;20037;-64
2021/05/25 03:24:25;;;;;;;3.50;1.95;;;9.50;94.10;;;;;;5067836;28;20090;-64
2021/05/25 03:26:51;;;;;;;3.88;1.90;;;9.50;94.50;;;;;;5070073;28;20044;-65
2021/05/25 03:29:17;;;;;;;3.17;1.42;;;9.40;95.00;;;;;;5069019;28;20445;-65
2021/05/25 03:31:43;;;;;;;2.72;1.40;;;9.40;94.10;;;;;;5055574;28;20044;-64
2021/05/25 03:34:09;;;;;;;2.70;1.50;;;9.30;94.20;;;;;;5060866;28;20044;-65
2021/05/25 03:36:34;;;;;;;2.22;1.25;;;9.30;94.30;;;;;;5054221;28;20033;-65
2021/05/25 03:39:00;;;;;;;3.05;1.67;;;9.30;94.30;;;;;;5065789;28;20078;-64
2021/05/25 03:41:26;;;;;;;1.95;1.20;;;9.20;94.70;;;;;;5063270;28;20040;-65
2021/05/25 03:43:51;;;;;;;3.22;1.67;;;9.20;94.50;;;;;;5063096;28;20362;-65
2021/05/25 03:46:17;;;;;;;2.00;1.40;;;9.10;94.90;;;;;;5068750;28;20032;-64
2021/05/25 03:48:42;;;;;;;2.10;0.93;;;9.10;94.60;;;;;;5068231;28;20036;-64
2021/05/25 03:51:08;;;;;;;1.98;1.20;;;9.10;95.40;;;;;;5067302;28;20044;-64
2021/05/25 03:53:35;;;;;;;1.83;1.15;;;9.10;94.90;;;;;;5059820;28;20431;-64
2021/05/25 03:58:52;;;;;;;2.15;1.33;;;9.10;94.80;;;;;;5056265;28;20032;-65
2021/05/25 04:01:26;;;;;;;4.00;1.20;;;9.10;94.80;;;;;;5062906;28;20076;-65
2021/05/25 04:03:56;;;;;;;2.10;1.10;;;9.10;94.60;;;;;;5061314;28;20075;-64
2021/05/25 04:06:23;;;;;;;1.95;1.13;;;9.00;94.90;;;;;;5062675;28;20040;-64
2021/05/25 04:08:49;;;;;;;1.30;1.13;;;9.00;94.50;;;;;;5050080;28;20073;-65
2021/05/25 04:11:16;;;;;;;2.03;1.02;;;9.00;95.10;;;;;;5063392;28;20435;-65
2021/05/25 04:13:43;;;;;;;3.80;1.40;;;9.00;95.10;;;;;;5058302;28;20036;-64
2021/05/25 04:16:11;;;;;;;2.83;1.23;;;9.00;95.00;;;;;;5084867;28;20033;-65
2021/05/25 04:18:37;;;;;;;1.33;0.90;;;9.00;94.80;;;;;;5071467;28;20044;-65
2021/05/25 04:21:03;;;;;;;2.88;1.00;;;9.10;94.30;;;;;;5072904;28;20040;-64
2021/05/25 04:23:29;;;;;;;2.45;1.05;;;9.00;94.70;;;;;;5063894;28;20040;-65
2021/05/25 04:25:55;;;;;;;2.72;1.02;;;9.00;94.50;;;;;;5068765;28;20048;-65
2021/05/25 04:28:21;;;;;;;2.72;1.52;;;9.00;94.70;;;;;;5070731;28;20118;-65
2021/05/25 04:30:47;;;;;;;3.72;1.27;;;9.00;94.70;;;;;;5056729;28;20053;-64
2021/05/25 04:33:13;;;;;;;2.28;1.30;;;8.90;94.70;;;;;;5072409;28;20040;-65
2021/05/25 04:35:39;;;;;;;1.95;1.20;;;8.90;95.10;;;;;;5073686;28;20545;-65
2021/05/25 04:38:05;;;;;;;1.67;0.90;;;9.00;95.50;;;;;;5057412;28;20120;-65
2021/05/25 04:40:33;;;;;;;2.28;1.00;;;9.00;95.20;;;;;;5070013;28;20054;-64
2021/05/25 04:43:00;;;;;;;3.95;1.25;;;9.00;95.50;;;;;;5065097;28;20108;-65
2021/05/25 04:45:26;;;;;;;2.15;0.93;;;9.00;95.10;;;;;;5062270;28;20041;-66
2021/05/25 04:47:53;;;;;;;4.72;1.10;;;9.00;95.30;;;;;;5059056;28;20111;-66
2021/05/25 04:50:19;;;;;;;2.20;1.10;;;9.00;95.10;;;;;;5062310;28;20115;-65
2021/05/25 04:52:46;;;;;;;4.07;1.20;;;8.90;95.10;;;;;;5066970;28;20047;-65
2021/05/25 04:55:14;;;;;;;3.33;1.10;;;9.00;94.90;;;;;;5063002;28;20044;-65
2021/05/25 04:57:40;;;;;;;1.70;0.93;;;9.00;95.10;;;;;;5066493;28;20037;-64
2021/05/25 05:00:09;;;;;;;3.17;1.02;;;9.00;95.30;;;;;;5064066;28;20051;-64
2021/05/25 05:02:34;;;;;;;1.42;1.02;;;9.00;95.00;;;;;;5063902;28;20045;-65
2021/05/25 05:05:00;;;;;;;2.00;1.00;;;9.00;95.10;;;;;;5071542;28;20109;-65
2021/05/25 05:07:26;;;;;;;3.40;1.10;;;9.00;95.80;;;;;;5071211;28;20467;-65
2021/05/25 05:09:51;;;;;;;4.03;1.23;;;9.00;95.20;;;;;;5068645;28;20079;-66
2021/05/25 05:12:17;;;;;;;2.70;1.08;;;9.10;94.70;;;;;;5053583;28;20045;-65
2021/05/25 05:14:43;;;;;;;3.17;1.00;;;9.10;94.70;;;;;;5058370;28;20075;-65
2021/05/25 05:17:08;;;;;;;3.95;1.30;;;9.10;95.30;;;;;;5071715;28;20533;-65
2021/05/25 05:19:34;;;;;;;2.50;1.10;;;9.20;94.60;;;;;;5065770;28;20036;-65
2021/05/25 05:22:00;;;;;;;2.35;0.90;;;9.20;95.20;;;;;;5068156;28;20052;-65
2021/05/25 05:24:26;;;;;;;2.78;1.30;;;9.20;95.00;;;;;;5072221;28;20045;-65
2021/05/25 05:26:51;;;;;;;2.78;1.17;;;9.30;95.00;;;;;;5060119;28;20044;-65
2021/05/25 05:29:17;;;;;;;1.88;1.05;;;9.40;94.90;;;;;;5059681;28;20037;-65
2021/05/25 05:31:44;;;;;;;4.90;0.98;;;9.40;94.80;;;;;;5069171;28;20072;-65
2021/05/25 05:34:10;;;;;;;2.20;0.90;;;9.50;94.40;;;;;;5071954;28;20453;-64
2021/05/25 05:36:35;;;;;;;3.92;1.05;;;9.60;94.40;;;;;;5058857;28;20068;-65
2021/05/25 05:39:02;;;;;;;2.30;1.25;;;9.70;94.30;;;;;;5051264;28;20044;-64
2021/05/25 05:41:28;;;;;;;2.35;1.00;;;9.70;94.50;;;;;;5070667;28;20036;-65
2021/05/25 05:43:54;;;;;;;1.88;1.15;;;9.80;94.40;;;;;;5071845;28;20079;-65
2021/05/25 05:46:19;;;;;;;1.58;1.00;;;9.90;94.20;;;;;;5064212;28;20489;-65
2021/05/25 05:48:45;;;;;;;2.05;1.13;;;10.00;94.50;;;;;;5053454;28;20047;-65
2021/05/25 05:51:11;;;;;;;2.28;1.30;;;10.10;93.70;;;;;;5070518;28;20036;-65
2021/05/25 05:53:36;;;;;;;2.22;1.20;;;10.20;93.30;;;;;;5056784;28;20176;-65
2021/05/25 05:56:02;;;;;;;1.75;1.15;;;10.20;93.90;;;;;;5066298;28;20090;-65
2021/05/25 05:58:28;;;;;;;2.90;1.25;;;10.20;93.50;;;;;;5069881;28;20046;-64
2021/05/25 06:00:53;;;;;;;2.25;1.20;;;10.20;94.00;;;;;;5065141;28;20467;-65
2021/05/25 06:03:19;;;;;;;3.38;1.30;;;10.20;94.00;;;;;;5068220;28;20059;-65
2021/05/25 06:05:46;;;;;;;1.95;1.08;;;10.20;94.10;;;;;;5069724;28;20025;-65
2021/05/25 06:08:13;;;;;;;4.70;1.48;;;10.30;93.30;;;;;;5070500;28;20485;-65
2021/05/25 06:10:40;;;;;;;1.73;1.10;;;10.30;93.60;;;;;;5041652;22;20502;-64
2021/05/25 06:13:06;;;;;;;2.90;1.50;;;10.20;93.70;;;;;;5028502;28;20037;-64
2021/05/25 06:15:33;;;;;;;2.67;1.60;;;10.30;93.30;;;;;;5013154;28;20137;-64
2021/05/25 06:17:59;;;;;;;3.70;1.33;;;10.30;93.30;;;;;;5025585;28;20042;-64
2021/05/25 06:20:26;;;;;;;4.65;1.60;;;10.30;94.00;;;;;;5029577;28;20080;-64
2021/05/25 06:22:51;;;;;;;3.72;1.40;;;10.30;94.60;;;;;;5026182;28;20785;-64
2021/05/25 06:25:17;;;;;;;4.35;1.42;;;10.40;93.00;;;;;;5028806;28;20058;-64
2021/05/25 06:27:44;;;;;;;3.05;1.48;;;10.30;93.00;;;;;;5016093;28;20034;-64
2021/05/25 06:30:11;;;;;;;4.68;1.52;;;10.40;92.60;;;;;;5017753;28;20043;-64
2021/05/25 06:32:37;;;;;;;3.80;1.45;;;10.40;93.00;;;;;;5015375;28;20293;-64
2021/05/25 06:35:05;;;;;;;4.15;1.80;;;10.40;93.70;;;;;;5012148;28;20038;-67
2021/05/25 06:37:31;;;;;;;2.55;1.27;;;10.40;94.00;;;;;;5027875;28;20482;-65
2021/05/25 06:39:57;;;;;;;4.28;1.67;;;10.50;92.90;;;;;;5031180;28;20037;-64
2021/05/25 06:42:23;;;;;;;2.33;1.70;;;10.60;93.30;;;;;;5021514;28;20101;-64
2021/05/25 06:44:48;;;;;;;3.15;1.45;;;10.60;93.50;;;;;;5012252;28;20537;-64
2021/05/25 06:47:14;;;;;;;2.65;2.10;;;10.60;93.40;;;;;;5018904;28;20122;-64
2021/05/25 06:49:40;;;;;;;5.20;1.90;;;10.70;92.50;;;;;;5023541;28;20467;-65
2021/05/25 06:52:10;;;;;;;4.68;3.50;;;10.70;93.20;;;;;;5028952;28;20105;-65
2021/05/25 06:54:36;;;;;;;4.25;2.30;;;10.80;93.50;;;;;;5024439;28;20037;-65
2021/05/25 06:57:02;;;;;;;2.92;2.30;;;10.80;93.50;;;;;;5032143;28;20033;-65
2021/05/25 06:59:27;;;;;;;2.22;1.35;;;10.90;93.50;;;;;;5029705;28;20534;-65
2021/05/25 07:01:53;;;;;;;3.67;2.88;;;11.00;92.30;;;;;;5036255;28;20041;-65
2021/05/25 07:04:20;;;;;;;2.28;1.48;;;11.10;93.00;;;;;;5030369;28;20037;-65
2021/05/25 07:06:46;;;;;;;1.50;1.40;;;11.10;92.10;;;;;;5031933;28;20033;-64
2021/05/25 07:09:12;;;;;;;1.30;1.05;;;11.20;92.40;;;;;;5022966;28;20045;-65
2021/05/25 07:11:38;;;;;;;1.40;1.10;;;11.40;91.70;;;;;;5026000;28;20083;-65
2021/05/25 07:14:04;;;;;;;2.45;1.00;;;11.60;90.60;;;;;;5023859;28;20037;-64
2021/05/25 07:16:30;;;;;;;1.05;1.00;;;11.70;91.10;;;;;;5037124;28;20044;-64
2021/05/25 07:18:58;;;;;;;1.23;1.13;;;11.80;90.50;;;;;;5031012;28;20037;-64
2021/05/25 07:21:23;;;;;;;1.00;0.90;;;11.80;90.90;;;;;;5030877;28;20087;-64
2021/05/25 07:23:50;;;;;;;1.40;0.88;;;11.80;90.60;;;;;;5028727;28;20430;-64
2021/05/25 07:26:17;;;;;;;1.20;1.10;;;11.80;90.10;;;;;;5037142;28;20048;-64
2021/05/25 07:28:42;;;;;;;1.92;1.30;;;11.90;89.60;;;;;;5036619;28;20038;-68
2021/05/25 07:31:09;;;;;;;2.58;1.10;;;11.90;89.10;;;;;;5028650;28;20475;-64
2021/05/25 07:33:34;;;;;;;1.42;0.80;;;12.00;88.40;;;;;;5018787;28;20069;-64
2021/05/25 07:36:00;;;;;;;1.33;1.20;;;12.20;86.50;;;;;;5023575;28;20080;-64
2021/05/25 07:38:26;;;;;;;1.48;1.10;;;12.20;87.10;;;;;;5035246;28;20044;-64
2021/05/25 07:40:52;;;;;;;1.08;0.90;;;12.20;88.40;;;;;;5014368;28;20120;-64
2021/05/25 07:43:18;;;;;;;1.35;0.90;;;12.20;86.70;;;;;;5011674;28;20069;-65
2021/05/25 07:45:44;;;;;;;0.90;0.90;;;12.30;86.50;;;;;;5015239;28;20416;-65
2021/05/25 07:48:10;;;;;;;3.08;1.38;;;12.40;86.40;;;;;;5034789;28;20037;-64
2021/05/25 07:50:36;;;;;;;1.15;1.05;;;12.60;86.50;;;;;;5047353;28;20038;-64
2021/05/25 07:53:02;;;;;;;1.23;0.93;;;12.60;86.00;;;;;;5031852;28;20069;-64
2021/05/25 07:55:30;;;;;;;1.58;1.10;;;12.50;86.10;;;;;;5032350;28;20041;-64
2021/05/25 07:57:57;;;;;;;1.40;1.00;;;12.40;86.50;;;;;;5031754;28;20140;-64
2021/05/25 08:00:24;;;;;;;1.45;1.00;;;12.30;86.20;;;;;;5019308;28;20079;-64
2021/05/25 08:02:50;;;;;;;1.83;0.90;;;12.00;87.90;;;;;;5018137;28;20482;-64
2021/05/25 08:05:18;;;;;;;1.30;1.20;;;11.70;88.70;;;;;;5031144;28;20041;-64
2021/05/25 08:07:43;;;;;;;1.50;1.40;;;11.50;90.30;;;;;;5031160;28;20041;-65
2021/05/25 08:10:12;;;;;;;1.90;1.20;;;11.40;90.50;;;;;;5036638;28;20218;-64
2021/05/25 08:12:38;;;;;;;1.50;1.40;;;11.30;90.20;;;;;;5028613;28;20662;-65
2021/05/25 08:15:06;;;;;;;1.63;1.52;;;11.10;90.60;;;;;;5030314;28;20045;-64
2021/05/25 08:22:45;;;;;;;1.40;1.30;;;11.30;90.80;;;;;;5028880;28;20083;-65
2021/05/25 08:25:13;;;;;;;1.73;1.33;;;11.50;90.70;;;;;;5029221;28;20042;-65
2021/05/25 08:27:39;;;;;;;1.63;1.52;;;11.60;90.10;;;;;;5030656;28;20049;-65
2021/05/25 08:30:07;;;;;;;1.92;1.58;;;11.70;90.50;;;;;;5029609;28;20064;-65
2021/05/25 08:32:33;;;;;;;2.03;1.52;;;11.90;90.00;;;;;;5024444;28;20088;-65
2021/05/25 08:34:59;;;;;;;1.70;1.60;;;12.00;89.80;;;;;;5042047;28;20425;-65
2021/05/25 08:37:25;;;;;;;2.47;1.40;;;12.30;89.60;;;;;;5035196;28;20033;-65
2021/05/25 08:39:50;;;;;;;1.58;1.08;;;12.60;87.70;;;;;;5028173;28;20493;-65
2021/05/25 08:42:16;;;;;;;3.95;1.70;;;12.80;85.70;;;;;;5030107;28;20372;-65
2021/05/25 08:44:42;;;;;;;1.77;1.40;;;12.70;87.10;;;;;;5011512;28;20132;-67
2021/05/25 08:47:08;;;;;;;1.90;1.17;;;12.80;86.20;;;;;;5025419;28;20391;-64
2021/05/25 08:49:35;;;;;;;1.45;1.30;;;12.90;86.40;;;;;;5022177;28;20044;-64
2021/05/25 08:52:04;;;;;;;1.95;1.35;;;13.00;84.80;;;;;;5023894;28;20038;-64
2021/05/25 08:54:30;;;;;;;1.60;1.50;;;13.00;84.70;;;;;;5011188;28;20042;-65
2021/05/25 08:56:56;;;;;;;2.20;1.50;;;13.10;84.90;;;;;;5025935;28;20043;-64
2021/05/25 08:59:22;;;;;;;2.75;1.55;;;13.40;84.90;;;;;;5025499;28;20487;-63
2021/05/25 09:01:49;;;;;;;1.67;1.58;;;13.80;83.90;;;;;;5031978;28;20040;-65
2021/05/25 09:04:15;;;;;;;1.77;1.67;;;14.10;82.80;;;;;;5032919;28;20112;-64
2021/05/25 09:06:46;;;;;;;2.53;1.40;;;14.40;82.60;;;;;;5035147;28;20029;-65
2021/05/25 09:09:20;;;;;;;3.25;1.30;;;14.50;82.80;;;;;;5041486;28;20538;-66
2021/05/25 09:12:01;;;;;;;1.42;0.90;;;14.60;80.20;;;;;;5031030;28;20037;-65
2021/05/25 09:14:28;;;;;;;2.67;1.10;;;14.60;77.20;;;;;;5032809;28;20065;-64
2021/05/25 09:17:24;;;;;;;1.48;0.82;;;14.30;78.70;;;;;;5032134;28;20048;-64
2021/05/25 09:19:57;;;;;;;1.33;0.82;;;13.80;79.10;;;;;;5032204;28;20498;-64
2021/05/25 09:22:28;;;;;;;0.75;0.75;;;13.60;81.30;;;;;;5031773;28;20033;-64
2021/05/25 09:24:54;;;;;;;1.13;0.68;;;13.50;81.70;;;;;;5015124;28;20060;-64
2021/05/25 09:27:39;;;;;;;2.08;0.80;;;13.30;82.20;;;;;;5025706;28;20045;-64
2021/05/25 09:30:23;;;;;;;2.78;0.80;;;13.20;83.30;;;;;;5031987;28;20046;-64
2021/05/25 09:32:58;;;;;;;2.90;0.60;;;13.10;85.00;;;;;;5027204;28;20463;-65
2021/05/25 09:35:34;;;;;;;1.40;1.00;;;13.00;83.90;;;;;;5029814;28;20399;-64
2021/05/25 09:38:05;;;;;;;1.45;1.02;;;12.90;83.90;;;;;;5022380;28;20376;-64
2021/05/25 09:40:32;;;;;;;1.52;0.82;;;12.70;85.40;;;;;;5025560;28;20044;-64
2021/05/25 09:43:22;;;;;;;1.45;0.80;;;12.50;86.10;;;;;;5023027;28;20106;-64
2021/05/25 09:45:55;;;;;;;1.10;0.77;;;12.40;86.40;;;;;;5028127;28;20490;-66
2021/05/25 09:48:22;;;;;;;1.85;0.90;;;12.30;86.60;;;;;;5024831;28;20049;-67
2021/05/25 09:50:48;;;;;;;2.15;0.68;;;12.10;87.40;;;;;;5047160;28;20032;-67
2021/05/25 09:53:21;;;;;;;1.17;0.70;;;11.90;88.30;;;;;;5029866;28;20034;-68
2021/05/25 09:55:52;;;;;;;2.25;0.80;;;11.60;89.00;;;;;;5029285;28;20402;-68
2021/05/25 09:58:21;;;;;;;2.05;0.93;;;11.60;89.30;;;;;;5024344;28;20045;-68
2021/05/25 10:00:47;;;;;;;1.00;0.90;;;11.60;89.60;;;;;;5030768;28;20478;-67
2021/05/25 10:03:14;;;;;;;1.27;1.00;;;11.50;90.10;;;;;;5024498;28;20041;-67
2021/05/25 10:05:43;;;;;;;1.40;0.93;;;11.50;90.20;;;;;;5013708;28;20045;-68
2021/05/25 10:08:10;;;;;;;1.08;0.80;;;11.40;90.50;;;;;;5013590;28;20068;-67
2021/05/25 10:10:36;;;;;;;1.40;0.90;;;11.50;90.50;;;;;;5032027;28;20053;-66
2021/05/25 10:13:02;;;;;;;1.65;0.82;;;11.60;90.10;;;;;;5032344;28;20483;-67
2021/05/25 10:15:29;;;;;;;2.72;0.90;;;11.60;90.40;;;;;;5031889;28;20063;-67
2021/05/25 10:20:25;;;;;;;2.25;0.90;;;11.60;90.30;;;;;;5049282;28;20048;-68
2021/05/25 10:22:52;;;;;;;1.38;1.27;;;11.70;90.00;;;;;;5038167;28;20366;-66
2021/05/25 10:25:18;;;;;;;2.72;1.13;;;11.60;90.30;;;;;;5039598;28;20143;-67
2021/05/25 10:27:46;;;;;;;2.45;1.00;;;11.70;90.00;;;;;;5022306;28;20038;-67
2021/05/25 10:30:22;;;;;;;2.13;1.02;;;11.40;91.40;;;;;;5036790;28;20052;-67
2021/05/25 10:32:48;;;;;;;2.47;1.25;;;11.30;91.10;;;;;;5033517;28;20041;-67
2021/05/25 10:35:18;;;;;;;2.33;1.95;;;11.40;90.90;;;;;;5013198;28;20529;-67
2021/05/25 10:38:06;;;;;;;3.00;1.20;;;11.40;91.50;;;;;;5011158;28;20541;-67
2021/05/25 10:40:39;;;;;;;1.55;0.88;;;11.40;91.80;;;;;;5029900;28;20052;-68
2021/05/25 10:43:30;;;;;;;2.15;1.05;;;11.40;91.40;;;;;;5030142;28;20069;-67
2021/05/25 10:46:14;;;;;;;3.35;1.00;;;11.40;91.20;;;;;;5030822;28;20502;-68
2021/05/25 10:49:16;;;;;;;1.73;1.35;;;11.30;91.10;;;;;;5015811;28;20068;-68
2021/05/25 10:55:56;;;;;;;1.00;0.90;;;11.30;90.70;;;;;;5153646;27;1199599;-66
2021/05/25 10:58:30;;;;;;;2.03;0.90;;;11.40;90.70;;;;;;5170164;27;20068;-66
2021/05/25 11:00:58;;;;;;;1.13;0.98;;;11.40;91.60;;;;;;5170063;27;20042;-66
2021/05/25 11:03:24;;;;;;;1.40;0.80;;;11.50;91.10;;;;;;5151212;27;20499;-66
2021/05/25 11:06:03;;;;;;;2.25;0.80;;;11.50;91.00;;;;;;5170040;27;20038;-66
2021/05/25 11:08:38;;;;;;;1.48;1.00;;;11.60;91.20;;;;;;5169806;27;20038;-66
2021/05/25 11:11:10;;;;;;;1.27;0.70;;;11.70;90.30;;;;;;5147936;27;20039;-66
2021/05/25 11:13:38;;;;;;;2.28;0.90;;;11.60;90.70;;;;;;5146891;27;20107;-66
2021/05/25 11:16:10;;;;;;;1.95;0.95;;;11.60;90.50;;;;;;5131036;27;20184;-66
2021/05/25 11:21:38;;;;;;;1.23;1.10;;;11.60;91.20;;;;;;5150207;27;20043;-66
2021/05/25 11:24:46;;;;;;;0.82;0.80;;;11.60;91.00;;;;;;5139853;27;20538;-67
2021/05/25 11:27:25;;;;;;;2.10;1.10;;;11.50;89.50;;;;;;5128993;28;20420;-67
2021/05/25 11:29:54;;;;;;;1.33;1.10;;;11.50;90.70;;;;;;5128896;28;20035;-66
2021/05/25 11:32:26;;;;;;;2.25;1.33;;;11.50;90.90;;;;;;5136975;27;20470;-66
2021/05/25 11:35:04;;;;;;;1.30;1.00;;;11.50;90.90;;;;;;5149377;27;20027;-66
2021/05/25 11:37:37;;;;;;;3.10;1.33;;;11.60;90.70;;;;;;5136500;27;20084;-66
2021/05/25 11:40:05;;;;;;;;;;;11.70;90.90;;;;;;5129731;27;20208;-67
2021/05/25 11:42:31;;;;;;;1.73;1.20;;;11.90;90.40;;;;;;5147669;27;19924;-66
2021/05/25 11:44:58;;;;;;;2.72;1.15;;;12.00;89.60;;;;;;5123145;27;20038;-66
2021/05/25 11:47:24;;;;;;;3.78;1.40;;;12.00;89.50;;;;;;5130485;27;20036;-66
2021/05/25 11:49:50;;;;;;;2.38;1.30;;;12.10;90.00;;;;;;5141908;27;20037;-65
2021/05/25 11:52:27;;;;;;;2.00;1.33;;;12.20;90.60;;;;;;5148844;27;20031;-65
2021/05/25 11:54:57;;;;;;;2.20;1.40;;;12.30;89.40;;;;;;5148472;27;20057;-65
2021/05/25 11:57:39;;;;;;;2.28;1.48;;;12.40;90.20;;;;;;5148139;27;20039;-65
2021/05/25 12:00:05;;;;;;;;;;;12.50;89.10;;;;;;5148467;27;20488;-65
2021/05/25 12:02:32;;;;;;;1.67;1.50;;;12.70;89.00;;;;;;5148105;27;19972;-65
2021/05/25 12:05:15;;;;;;;2.63;1.30;;;12.90;88.10;;;;;;5147905;27;20480;-65
2021/05/25 12:07:43;;;;;;;2.35;1.13;;;13.00;88.80;;;;;;5134480;27;20118;-65
2021/05/25 12:10:11;;;;;;;1.52;1.00;;;13.20;85.10;;;;;;5115733;27;20035;-65
2021/05/25 12:12:42;;;;;;;2.08;1.48;;;13.30;85.10;;;;;;5134088;27;20027;-65
2021/05/25 12:15:26;;;;;;;2.00;1.20;;;13.40;85.00;;;;;;5133918;27;20464;-65
2021/05/25 12:18:25;;;;;;;2.90;1.70;;;13.40;86.50;;;;;;5134102;27;20129;-66
2021/05/25 12:20:53;;;;;;;2.22;1.85;;;13.60;87.10;;;;;;5127580;27;20129;-66
2021/05/25 12:23:27;;;;;;;1.98;1.10;;;13.70;85.70;;;;;;5133964;27;20033;-66
2021/05/25 12:25:55;;;;;;;1.10;1.00;;;13.70;85.40;;;;;;5134009;27;20062;-66
2021/05/25 12:28:37;;;;;;;2.08;1.23;;;13.80;83.80;;;;;;5133896;27;20035;-67
2021/05/25 12:31:04;;;;;;;2.38;1.38;;;13.90;80.90;;;;;;5133736;27;20050;-66
2021/05/25 12:33:34;;;;;;;2.17;1.58;;;13.90;81.40;;;;;;5133771;27;20031;-66
2021/05/25 12:36:19;;;;;;;2.15;1.60;;;14.00;81.70;;;;;;5133637;27;20147;-66
2021/05/25 12:38:56;;;;;;;1.40;1.30;;;13.90;82.80;;;;;;5133553;27;20038;-66
2021/05/25 12:41:22;;;;;;;2.00;1.20;;;13.90;82.50;;;;;;5133477;27;20047;-67
2021/05/25 12:43:48;;;;;;;1.77;1.40;;;13.90;82.00;;;;;;5115293;27;20047;-67
2021/05/25 12:46:13;;;;;;;2.65;1.65;;;13.80;83.50;;;;;;5133504;27;20050;-66
2021/05/25 12:48:40;;;;;;;3.03;1.17;;;13.90;81.50;;;;;;5133407;27;20124;-66
2021/05/25 12:51:07;;;;;;;2.70;1.40;;;13.90;81.70;;;;;;5133357;27;20035;-66
2021/05/25 12:53:53;;;;;;;3.08;1.63;;;14.00;81.60;;;;;;5133373;27;20042;-66
2021/05/25 12:56:21;;;;;;;2.05;1.30;;;14.00;81.20;;;;;;5133016;27;20051;-66
2021/05/25 12:58:48;;;;;;;3.08;1.60;;;14.00;82.00;;;;;;5114788;27;20107;-66
2021/05/25 13:01:28;;;;;;;2.25;1.50;;;14.00;83.00;;;;;;5133171;27;20043;-66
2021/05/25 13:04:01;;;;;;;1.83;1.48;;;14.10;82.40;;;;;;5133310;27;20130;-67
2021/05/25 13:06:30;;;;;;;4.07;1.77;;;14.10;82.10;;;;;;5132972;27;20477;-66
2021/05/25 13:09:16;;;;;;;1.80;1.40;;;14.20;80.60;;;;;;5133291;27;20027;-66
2021/05/25 13:12:14;;;;;;;5.18;2.00;;;14.30;83.20;;;;;;5132993;27;20051;-67
2021/05/25 13:14:40;;;;;;;3.17;1.60;;;14.40;84.70;;;;;;5132715;27;20102;-66
2021/05/25 13:17:10;;;;;;;2.13;1.90;;;14.50;81.40;;;;;;5132272;27;20035;-66